createdAt,value
2023-05-20T00:00:19.977Z,39.29
2023-05-20T00:02:26.688Z,39.21
2023-05-20T00:04:28.305Z,39.04
2023-05-20T00:06:29.918Z,38.83
2023-05-20T00:08:31.810Z,39.41
2023-05-20T00:10:33.274Z,39.48
2023-05-20T00:12:37.702Z,39.36
2023-05-20T00:14:45.342Z,39.19
2023-05-20T00:16:47.332Z,39.27
2023-05-20T00:18:49.024Z,39.48
2023-05-20T00:20:50.638Z,39.61
2023-05-20T00:22:52.192Z,39.44
2023-05-20T00:24:53.915Z,39.65
2023-05-20T00:26:55.453Z,39.82
2023-05-20T00:28:57.040Z,39.50
2023-05-20T00:30:58.641Z,39.31
2023-05-20T00:33:00.218Z,39.42
2023-05-20T00:35:02.678Z,40.00
2023-05-20T00:37:04.252Z,39.76
2023-05-20T00:39:08.613Z,39.83
2023-05-20T00:41:10.380Z,39.94
2023-05-20T00:43:15.625Z,39.88
2023-05-20T00:45:17.685Z,40.06
2023-05-20T00:49:37.736Z,40.05
2023-05-20T00:51:39.254Z,40.03
2023-05-20T00:53:41.976Z,40.22
2023-05-20T00:55:43.727Z,40.60
2023-05-20T00:57:54.522Z,40.51
2023-05-20T00:59:56.936Z,40.12
2023-05-20T01:01:59.084Z,40.56
2023-05-20T01:04:00.804Z,40.44
2023-05-20T01:06:03.222Z,40.62
2023-05-20T01:08:05.188Z,40.25
2023-05-20T01:10:07.561Z,40.41
2023-05-20T01:12:16.466Z,40.44
2023-05-20T01:14:19.814Z,40.62
2023-05-20T01:16:24.596Z,40.25
2023-05-20T01:18:30.176Z,41.00
2023-05-20T01:20:35.661Z,40.56
2023-05-20T01:22:53.234Z,40.38
2023-05-20T01:24:55.069Z,41.28
2023-05-20T01:26:58.162Z,41.16
2023-05-20T01:29:04.751Z,40.74
2023-05-20T01:31:20.277Z,41.00
2023-05-20T01:33:24.540Z,40.64
2023-05-20T01:35:26.681Z,40.86
2023-05-20T01:37:28.982Z,40.93
2023-05-20T01:39:31.696Z,40.76
2023-05-20T01:41:35.646Z,41.13
2023-05-20T01:43:39.147Z,40.86
2023-05-20T01:45:44.085Z,40.86
2023-05-20T01:47:46.152Z,41.13
2023-05-20T01:49:47.966Z,41.41
2023-05-20T01:51:49.563Z,41.09
2023-05-20T01:53:53.849Z,41.29
2023-05-20T01:55:59.067Z,41.58
2023-05-20T01:58:04.595Z,41.56
2023-05-20T02:00:06.969Z,41.31
2023-05-20T02:02:18.153Z,41.60
2023-05-20T02:04:19.810Z,41.75
2023-05-20T02:06:23.135Z,41.47
2023-05-20T02:08:24.668Z,41.61
2023-05-20T02:10:26.421Z,41.47
2023-05-20T02:12:28.082Z,41.63
2023-05-20T02:14:29.826Z,41.89
2023-05-20T02:16:31.414Z,42.01
2023-05-20T02:18:35.236Z,41.62
2023-05-20T02:20:39.619Z,41.43
2023-05-20T02:22:41.276Z,41.74
2023-05-20T02:24:43.674Z,42.26
2023-05-20T02:26:46.775Z,41.63
2023-05-20T02:28:51.640Z,41.69
2023-05-20T02:30:56.423Z,41.95
2023-05-20T02:32:58.020Z,42.06
2023-05-20T02:34:59.894Z,41.64
2023-05-20T02:37:03.591Z,41.95
2023-05-20T02:39:08.184Z,41.75
2023-05-20T02:41:09.751Z,41.68
2023-05-20T02:43:11.391Z,41.91
2023-05-20T02:45:13.074Z,42.28
2023-05-20T02:47:15.101Z,41.76
2023-05-20T02:49:16.619Z,42.06
2023-05-20T02:51:18.373Z,42.35
2023-05-20T02:53:20.951Z,42.08
2023-05-20T02:55:23.752Z,42.27
2023-05-20T02:57:27.352Z,41.80
2023-05-20T02:59:29.073Z,42.12
2023-05-20T03:01:33.871Z,42.03
2023-05-20T03:03:35.743Z,42.03
2023-05-20T03:05:42.377Z,42.20
2023-05-20T03:07:43.933Z,41.75
2023-05-20T03:09:46.066Z,42.36
2023-05-20T03:11:48.357Z,42.38
2023-05-20T03:13:49.985Z,42.20
2023-05-20T03:15:52.867Z,42.13
2023-05-20T03:17:54.360Z,42.14
2023-05-20T03:19:56.183Z,42.23
2023-05-20T03:22:00.744Z,42.45
2023-05-20T03:24:02.304Z,42.71
2023-05-20T03:26:03.857Z,42.41
2023-05-20T03:28:06.728Z,42.28
2023-05-20T03:30:11.125Z,42.40
2023-05-20T03:32:13.836Z,42.62
2023-05-20T03:34:15.538Z,42.54
2023-05-20T03:36:17.474Z,42.54
2023-05-20T03:38:19.000Z,42.27
2023-05-20T03:40:21.228Z,42.71
2023-05-20T03:42:23.444Z,42.80
2023-05-20T03:44:25.061Z,42.70
2023-05-20T03:46:26.674Z,42.68
2023-05-20T03:48:28.210Z,42.43
2023-05-20T03:50:31.246Z,42.95
2023-05-20T03:52:32.938Z,42.91
2023-05-20T03:54:36.221Z,42.60
2023-05-20T03:56:38.606Z,42.64
2023-05-20T03:58:40.484Z,42.91
2023-05-20T04:00:42.586Z,43.15
2023-05-20T04:02:44.647Z,43.06
2023-05-20T04:04:52.957Z,43.19
2023-05-20T04:06:54.621Z,43.10
2023-05-20T04:08:59.250Z,43.30
2023-05-20T04:11:00.856Z,43.10
2023-05-20T04:13:02.409Z,43.39
2023-05-20T04:15:04.758Z,43.14
2023-05-20T04:17:17.828Z,43.29
2023-05-20T04:19:19.862Z,43.24
2023-05-20T04:21:21.766Z,43.02
2023-05-20T04:23:24.122Z,43.11
2023-05-20T04:25:26.220Z,43.07
2023-05-20T04:27:28.855Z,43.48
2023-05-20T04:29:36.313Z,43.08
2023-05-20T04:31:38.654Z,43.26
2023-05-20T04:33:40.420Z,43.16
2023-05-20T04:35:48.501Z,43.42
2023-05-20T04:37:51.816Z,43.15
2023-05-20T04:39:53.857Z,43.25
2023-05-20T04:41:55.424Z,43.52
2023-05-20T04:44:01.517Z,43.46
2023-05-20T04:46:11.916Z,43.07
2023-05-20T04:48:14.763Z,43.63
2023-05-20T04:50:16.300Z,43.79
2023-05-20T04:52:18.180Z,43.53
2023-05-20T04:54:20.471Z,43.29
2023-05-20T04:56:24.708Z,43.51
2023-05-20T04:58:26.313Z,43.56
2023-05-20T05:00:27.815Z,43.78
2023-05-20T05:02:29.587Z,43.40
2023-05-20T05:04:34.195Z,43.34
2023-05-20T05:06:36.459Z,43.25
2023-05-20T05:08:38.041Z,43.53
2023-05-20T05:10:39.846Z,43.65
2023-05-20T05:12:45.134Z,43.70
2023-05-20T05:14:46.700Z,43.45
2023-05-20T05:16:55.668Z,43.59
2023-05-20T05:18:57.705Z,43.84
2023-05-20T05:21:04.089Z,43.45
2023-05-20T05:23:06.537Z,43.75
2023-05-20T05:25:12.210Z,43.97
2023-05-20T05:27:13.815Z,43.71
2023-05-20T05:29:17.928Z,44.27
2023-05-20T05:31:19.481Z,44.25
2023-05-20T05:33:24.322Z,43.85
2023-05-20T05:35:36.263Z,44.31
2023-05-20T05:37:38.146Z,43.75
2023-05-20T05:39:40.238Z,43.77
2023-05-20T05:41:41.824Z,44.42
2023-05-20T05:43:43.519Z,44.22
2023-05-20T05:45:45.292Z,43.95
2023-05-20T05:47:47.083Z,44.17
2023-05-20T05:49:49.432Z,44.18
2023-05-20T05:51:51.808Z,44.26
2023-05-20T05:53:54.082Z,44.37
2023-05-20T05:55:55.658Z,44.05
2023-05-20T05:57:57.665Z,44.12
2023-05-20T06:00:01.313Z,43.94
2023-05-20T06:02:10.385Z,43.50
2023-05-20T06:04:12.395Z,43.64
2023-05-20T06:06:15.108Z,43.75
2023-05-20T06:08:16.719Z,43.29
2023-05-20T06:10:19.422Z,43.39
2023-05-20T06:12:21.304Z,43.36
2023-05-20T06:14:25.793Z,43.25
2023-05-20T06:16:27.469Z,43.50
2023-05-20T06:18:29.421Z,43.37
2023-05-20T06:20:35.639Z,43.23
2023-05-20T06:22:43.367Z,43.30
2023-05-20T06:24:45.019Z,43.23
2023-05-20T06:26:49.884Z,43.07
2023-05-20T06:28:51.421Z,43.29
2023-05-20T06:30:56.529Z,43.28
2023-05-20T06:33:00.087Z,42.84
2023-05-20T06:35:01.906Z,42.75
2023-05-20T06:37:03.589Z,42.79
2023-05-20T06:39:06.495Z,42.70
2023-05-20T06:41:12.909Z,42.61
2023-05-20T06:43:14.905Z,42.62
2023-05-20T06:45:23.105Z,42.52
2023-05-20T06:47:28.786Z,42.56
2023-05-20T06:49:30.641Z,42.50
2023-05-20T06:51:32.239Z,42.38
2023-05-20T06:53:36.313Z,42.31
2023-05-20T06:55:38.975Z,42.03
2023-05-20T06:57:41.121Z,42.42
2023-05-20T06:59:42.849Z,42.04
2023-05-20T07:01:50.729Z,42.07
2023-05-20T07:03:53.342Z,41.84
2023-05-20T07:05:54.875Z,41.70
2023-05-20T07:07:56.872Z,41.53
2023-05-20T07:09:58.920Z,41.50
2023-05-20T07:12:00.810Z,41.29
2023-05-20T07:14:02.735Z,41.47
2023-05-20T07:16:06.226Z,41.33
2023-05-20T07:18:07.914Z,41.04
2023-05-20T07:20:09.912Z,41.29
2023-05-20T07:22:11.936Z,41.06
2023-05-20T07:24:26.656Z,41.02
2023-05-20T07:26:28.228Z,40.65
2023-05-20T07:28:32.990Z,40.63
2023-05-20T07:30:34.644Z,41.03
2023-05-20T07:32:55.121Z,40.54
2023-05-20T07:34:56.926Z,40.34
2023-05-20T07:36:58.469Z,40.32
2023-05-20T07:39:03.516Z,40.52
2023-05-20T07:41:13.989Z,40.55
2023-05-20T07:43:15.619Z,40.23
2023-05-20T07:45:17.568Z,40.55
2023-05-20T07:47:19.615Z,40.25
2023-05-20T07:49:21.630Z,39.93
2023-05-20T07:51:23.360Z,39.79
2023-05-20T07:53:25.900Z,39.72
2023-05-20T07:55:28.059Z,39.72
2023-05-20T07:57:30.905Z,39.61
2023-05-20T07:59:32.973Z,39.39
2023-05-20T08:01:34.834Z,39.65
2023-05-20T08:03:37.607Z,39.64
2023-05-20T08:05:44.275Z,39.44
2023-05-20T08:07:45.889Z,39.04
2023-05-20T08:09:51.314Z,38.80
2023-05-20T08:11:53.702Z,38.97
2023-05-20T08:13:55.320Z,39.32
2023-05-20T08:16:01.504Z,39.35
2023-05-20T08:18:03.700Z,39.13
2023-05-20T08:20:06.189Z,39.10
2023-05-20T08:22:08.697Z,39.23
2023-05-20T08:24:10.364Z,39.27
2023-05-20T08:26:11.972Z,38.88
2023-05-20T08:28:16.653Z,39.13
2023-05-20T08:30:18.334Z,39.05
2023-05-20T08:32:19.945Z,39.13
2023-05-20T08:34:21.514Z,39.04
2023-05-20T08:36:23.598Z,39.11
2023-05-20T08:38:25.500Z,38.84
2023-05-20T08:40:27.365Z,38.32
2023-05-20T08:42:28.988Z,38.17
2023-05-20T08:44:35.828Z,38.10
2023-05-20T08:46:38.603Z,38.05
2023-05-20T08:48:42.203Z,37.92
2023-05-20T08:50:50.615Z,38.06
2023-05-20T08:52:52.655Z,37.78
2023-05-20T08:54:54.439Z,37.83
2023-05-20T08:56:57.100Z,37.66
2023-05-20T08:59:02.926Z,37.70
2023-05-20T09:01:07.535Z,37.74
2023-05-20T09:03:10.098Z,37.88
2023-05-20T09:05:14.261Z,37.96
2023-05-20T09:07:26.848Z,37.33
2023-05-20T09:09:30.098Z,37.34
2023-05-20T09:11:31.613Z,37.69
2023-05-20T09:13:34.144Z,37.53
2023-05-20T09:15:36.986Z,37.00
2023-05-20T09:17:39.112Z,36.63
2023-05-20T09:19:41.532Z,36.75
2023-05-20T09:21:43.808Z,36.93
2023-05-20T09:23:50.425Z,36.49
2023-05-20T09:25:52.495Z,36.20
2023-05-20T09:27:54.791Z,36.06
2023-05-20T09:29:57.087Z,36.43
2023-05-20T09:32:04.399Z,36.41
2023-05-20T09:34:06.527Z,36.38
2023-05-20T09:36:09.033Z,36.15
2023-05-20T09:38:12.257Z,36.15
2023-05-20T09:40:15.700Z,36.27
2023-05-20T09:42:45.064Z,36.36
2023-05-20T09:44:49.385Z,36.59
2023-05-20T09:46:53.097Z,37.03
2023-05-20T09:48:55.033Z,36.87
2023-05-20T09:50:57.625Z,36.84
2023-05-20T09:53:03.758Z,36.73
2023-05-20T09:55:06.309Z,36.99
2023-05-20T09:57:08.018Z,36.92
2023-05-20T09:59:11.554Z,36.26
2023-05-20T10:01:13.489Z,36.59
2023-05-20T10:03:15.662Z,36.06
2023-05-20T10:05:21.713Z,36.08
2023-05-20T10:07:43.525Z,35.81
2023-05-20T10:10:11.974Z,34.29
2023-05-20T10:12:38.398Z,34.65
2023-05-20T10:15:14.556Z,33.78
2023-05-20T10:17:34.698Z,34.65
2023-05-20T10:19:36.521Z,34.50
2023-05-20T10:21:38.276Z,34.89
2023-05-20T10:23:40.043Z,34.64
2023-05-20T10:25:51.423Z,34.17
2023-05-20T10:28:03.905Z,34.41
2023-05-20T10:30:15.995Z,34.53
2023-05-20T10:32:30.354Z,34.65
2023-05-20T10:34:46.875Z,34.36
2023-05-20T10:36:54.338Z,34.49
2023-05-20T10:39:00.927Z,34.98
2023-05-20T10:41:11.413Z,34.36
2023-05-20T10:43:18.847Z,34.09
2023-05-20T10:45:29.635Z,33.91
2023-05-20T10:47:31.899Z,34.68
2023-05-20T10:49:35.386Z,33.75
2023-05-20T10:51:37.703Z,34.59
2023-05-20T10:53:45.741Z,34.13
2023-05-20T10:55:53.436Z,34.07
2023-05-20T10:57:55.500Z,34.33
2023-05-20T10:59:57.592Z,34.04
2023-05-20T11:02:01.596Z,33.96
2023-05-20T11:04:05.364Z,33.95
2023-05-20T11:06:16.051Z,34.33
2023-05-20T11:08:27.725Z,34.16
2023-05-20T11:10:30.545Z,34.59
2023-05-20T11:12:32.924Z,34.31
2023-05-20T11:14:38.934Z,34.23
2023-05-20T11:16:51.994Z,34.35
2023-05-20T11:18:56.627Z,33.86
2023-05-20T11:21:04.762Z,33.68
2023-05-20T11:23:11.553Z,33.47
2023-05-20T11:25:13.100Z,33.82
2023-05-20T11:27:14.740Z,33.56
2023-05-20T11:29:17.870Z,34.01
2023-05-20T11:31:20.786Z,33.81
2023-05-20T11:33:27.257Z,33.61
2023-05-20T11:35:33.305Z,33.45
2023-05-20T11:37:36.400Z,33.27
2023-05-20T11:39:40.131Z,33.31
2023-05-20T11:41:45.766Z,32.77
2023-05-20T11:43:47.236Z,33.46
2023-05-20T11:45:59.767Z,33.32
2023-05-20T11:48:03.644Z,33.34
2023-05-20T11:50:06.010Z,33.28
2023-05-20T11:52:09.849Z,33.28
2023-05-20T11:54:11.842Z,33.15
2023-05-20T11:56:14.467Z,32.90
2023-05-20T11:58:20.796Z,32.85
2023-05-20T12:00:23.977Z,32.48
2023-05-20T12:02:25.622Z,32.52
2023-05-20T12:04:28.500Z,32.90
2023-05-20T12:06:30.009Z,33.00
2023-05-20T12:08:31.797Z,32.60
2023-05-20T12:10:34.250Z,32.77
2023-05-20T12:12:38.372Z,31.82
2023-05-20T12:14:41.054Z,31.96
2023-05-20T12:16:42.727Z,32.18
2023-05-20T12:18:44.484Z,31.85
2023-05-20T12:20:46.105Z,31.62
2023-05-20T12:22:48.300Z,32.19
2023-05-20T12:24:50.431Z,32.25
2023-05-20T12:26:54.379Z,32.17
2023-05-20T12:28:56.711Z,32.31
2023-05-20T12:30:58.404Z,31.88
2023-05-20T12:32:59.907Z,31.92
2023-05-20T12:35:01.475Z,32.39
2023-05-20T12:37:03.038Z,32.21
2023-05-20T12:39:04.758Z,32.05
2023-05-20T12:41:06.345Z,31.86
2023-05-20T12:43:08.109Z,32.02
2023-05-20T12:45:10.306Z,32.02
2023-05-20T12:47:12.259Z,31.89
2023-05-20T12:49:13.727Z,32.37
2023-05-20T12:51:15.238Z,32.06
2023-05-20T12:53:16.823Z,32.18
2023-05-20T12:55:18.474Z,32.44
2023-05-20T12:57:19.955Z,32.26
2023-05-20T12:59:21.512Z,32.83
2023-05-20T13:01:23.172Z,32.81
2023-05-20T13:03:24.858Z,32.53
2023-05-20T13:05:26.676Z,31.93
2023-05-20T13:07:28.211Z,32.50
2023-05-20T13:09:30.102Z,32.44
2023-05-20T13:11:31.795Z,32.30
2023-05-20T13:13:33.414Z,32.19
2023-05-20T13:15:35.561Z,32.17
2023-05-20T13:17:37.117Z,32.37
2023-05-20T13:19:38.720Z,32.44
2023-05-20T13:21:40.390Z,32.33
2023-05-20T13:23:42.685Z,32.10
2023-05-20T13:25:44.375Z,32.29
2023-05-20T13:27:45.993Z,31.98
2023-05-20T13:29:47.582Z,32.15
2023-05-20T13:31:49.360Z,32.68
2023-05-20T13:34:01.015Z,32.82
2023-05-20T13:36:02.996Z,32.63
2023-05-20T13:38:04.554Z,32.73
2023-05-20T13:40:06.884Z,33.03
2023-05-20T13:42:08.524Z,32.63
2023-05-20T13:44:10.382Z,32.81
2023-05-20T13:46:12.043Z,32.66
2023-05-20T13:48:13.978Z,32.42
2023-05-20T13:50:19.694Z,33.07
2023-05-20T13:52:21.384Z,33.05
2023-05-20T13:54:22.963Z,33.13
2023-05-20T13:56:24.601Z,33.26
2023-05-20T13:58:26.171Z,33.03
2023-05-20T14:00:27.855Z,32.75
2023-05-20T14:02:31.006Z,32.60
2023-05-20T14:04:37.977Z,32.48
2023-05-20T14:06:39.959Z,32.39
2023-05-20T14:08:41.713Z,32.49
2023-05-20T14:10:47.537Z,32.45
2023-05-20T14:12:49.102Z,32.65
2023-05-20T14:14:53.813Z,31.73
2023-05-20T14:16:55.453Z,31.71
2023-05-20T14:18:57.143Z,32.02
2023-05-20T14:20:58.776Z,31.82
2023-05-20T14:23:01.547Z,32.17
2023-05-20T14:25:03.314Z,32.13
2023-05-20T14:27:05.033Z,31.90
2023-05-20T14:29:06.682Z,31.78
2023-05-20T14:31:11.430Z,32.10
2023-05-20T14:33:13.059Z,32.15
2023-05-20T14:35:14.826Z,31.83
2023-05-20T14:37:16.985Z,31.89
2023-05-20T14:39:18.525Z,32.08
2023-05-20T14:41:20.104Z,31.76
2023-05-20T14:43:22.750Z,32.25
2023-05-20T14:45:24.777Z,31.91
2023-05-20T14:47:26.761Z,32.25
2023-05-20T14:49:28.934Z,31.98
2023-05-20T14:51:31.436Z,32.24
2023-05-20T14:53:33.057Z,31.79
2023-05-20T14:55:34.811Z,31.81
2023-05-20T14:57:36.495Z,32.14
2023-05-20T14:59:38.126Z,32.10
2023-05-20T15:01:39.736Z,32.22
2023-05-20T15:03:41.547Z,31.95
2023-05-20T15:05:43.535Z,32.23
2023-05-20T15:07:46.764Z,32.21
2023-05-20T15:09:52.806Z,31.89
2023-05-20T15:11:54.272Z,31.61
2023-05-20T15:13:55.869Z,32.21
2023-05-20T15:15:57.377Z,32.12
2023-05-20T15:17:59.028Z,32.33
2023-05-20T15:20:02.479Z,31.98
2023-05-20T15:22:04.175Z,32.04
2023-05-20T15:24:05.973Z,32.37
2023-05-20T15:26:07.816Z,31.92
2023-05-20T15:28:09.521Z,32.01
2023-05-20T15:30:11.882Z,32.26
2023-05-20T15:32:13.465Z,32.30
2023-05-20T15:34:15.243Z,32.17
2023-05-20T15:36:26.455Z,32.36
2023-05-20T15:38:28.011Z,32.34
2023-05-20T15:40:29.588Z,32.44
2023-05-20T15:42:31.889Z,32.13
2023-05-20T15:44:42.451Z,32.08
2023-05-20T15:46:44.970Z,32.04
2023-05-20T15:48:46.746Z,32.39
2023-05-20T15:50:48.425Z,32.27
2023-05-20T15:52:53.179Z,32.40
2023-05-20T15:54:55.903Z,31.75
2023-05-20T15:56:58.090Z,32.01
2023-05-20T15:58:59.884Z,32.13
2023-05-20T16:01:01.609Z,32.23
2023-05-20T16:03:03.293Z,32.15
2023-05-20T16:05:05.802Z,32.04
2023-05-20T16:07:07.553Z,31.96
2023-05-20T16:09:11.487Z,32.17
2023-05-20T16:11:13.108Z,32.08
2023-05-20T16:13:14.780Z,31.88
2023-05-20T16:15:16.325Z,32.02
2023-05-20T16:17:21.145Z,32.14
2023-05-20T16:19:23.161Z,32.15
2023-05-20T16:21:26.174Z,32.31
2023-05-20T16:23:27.785Z,32.33
2023-05-20T16:25:29.405Z,32.38
2023-05-20T16:27:31.996Z,32.51
2023-05-20T16:29:34.954Z,32.53
2023-05-20T16:31:36.541Z,32.74
2023-05-20T16:33:38.191Z,32.44
2023-05-20T16:35:39.917Z,32.73
2023-05-20T16:37:41.617Z,32.92
2023-05-20T16:39:43.209Z,32.85
2023-05-20T16:41:44.740Z,32.95
2023-05-20T16:43:47.483Z,32.86
2023-05-20T16:45:49.042Z,33.11
2023-05-20T16:47:50.727Z,33.02
2023-05-20T16:49:52.462Z,33.09
2023-05-20T16:51:55.774Z,33.25
2023-05-20T16:53:57.423Z,33.31
2023-05-20T16:56:08.234Z,33.40
2023-05-20T16:58:10.100Z,33.53
2023-05-20T17:00:11.999Z,33.58
2023-05-20T17:02:13.646Z,33.62
2023-05-20T17:04:15.689Z,33.68
2023-05-20T17:06:17.601Z,33.81
2023-05-20T17:08:19.130Z,33.80
2023-05-20T17:10:20.825Z,33.96
2023-05-20T17:12:23.204Z,33.83
2023-05-20T17:14:27.096Z,33.91
2023-05-20T17:16:28.813Z,33.84
2023-05-20T17:18:30.419Z,34.12
2023-05-20T17:20:32.590Z,33.83
2023-05-20T17:22:34.524Z,34.04
2023-05-20T17:24:36.840Z,34.04
2023-05-20T17:26:38.518Z,33.85
2023-05-20T17:28:40.070Z,34.06
2023-05-20T17:30:41.913Z,33.80
2023-05-20T17:32:43.745Z,34.04
2023-05-20T17:34:45.454Z,33.91
2023-05-20T17:36:47.038Z,33.92
2023-05-20T17:38:49.558Z,33.81
2023-05-20T17:40:53.618Z,33.97
2023-05-20T17:42:55.428Z,34.04
2023-05-20T17:44:56.988Z,33.92
2023-05-20T17:46:58.484Z,34.10
2023-05-20T17:49:00.048Z,34.00
2023-05-20T17:51:01.839Z,34.02
2023-05-20T17:53:03.425Z,34.15
2023-05-20T17:55:06.621Z,34.06
2023-05-20T17:57:08.372Z,33.88
2023-05-20T17:59:11.550Z,34.09
2023-05-20T18:01:13.257Z,33.84
2023-05-20T18:03:14.913Z,34.28
2023-05-20T18:05:19.684Z,34.20
2023-05-20T18:07:21.214Z,34.01
2023-05-20T18:09:22.849Z,34.08
2023-05-20T18:11:27.236Z,34.23
2023-05-20T18:13:29.128Z,34.09
2023-05-20T18:15:30.921Z,33.90
2023-05-20T18:17:32.416Z,34.14
2023-05-20T18:19:34.103Z,34.16
2023-05-20T18:21:35.793Z,34.26
2023-05-20T18:23:37.292Z,34.18
2023-05-20T18:25:41.064Z,35.11
2023-05-20T18:27:44.352Z,35.04
2023-05-20T18:29:46.278Z,35.06
2023-05-20T18:31:47.919Z,34.84
2023-05-20T18:33:49.510Z,35.04
2023-05-20T18:35:51.873Z,35.15
2023-05-20T18:37:56.479Z,34.99
2023-05-20T18:39:59.015Z,34.67
2023-05-20T18:42:00.578Z,34.89
2023-05-20T18:44:03.849Z,34.80
2023-05-20T18:46:06.861Z,34.99
2023-05-20T18:48:08.809Z,34.98
2023-05-20T18:50:11.496Z,34.77
2023-05-20T18:52:13.190Z,34.91
2023-05-20T18:54:14.809Z,34.88
2023-05-20T18:56:17.489Z,34.72
2023-05-20T18:58:19.039Z,35.00
2023-05-20T19:00:20.762Z,34.83
2023-05-20T19:02:22.357Z,35.05
2023-05-20T19:04:28.117Z,34.73
2023-05-20T19:06:29.705Z,35.07
2023-05-20T19:08:32.409Z,34.72
2023-05-20T19:10:36.183Z,34.76
2023-05-20T19:12:37.958Z,35.25
2023-05-20T19:14:39.546Z,35.36
2023-05-20T19:16:44.136Z,35.22
2023-05-20T19:18:45.825Z,35.05
2023-05-20T19:20:47.559Z,34.90
2023-05-20T19:22:49.164Z,35.30
2023-05-20T19:24:53.637Z,35.25
2023-05-20T19:26:55.249Z,35.38
2023-05-20T19:28:56.771Z,35.66
2023-05-20T19:30:58.395Z,35.23
2023-05-20T19:33:02.364Z,35.65
2023-05-20T19:35:05.877Z,35.31
2023-05-20T19:37:07.602Z,35.83
2023-05-20T19:39:09.608Z,35.61
2023-05-20T19:41:13.037Z,35.40
2023-05-20T19:43:17.686Z,35.55
2023-05-20T19:45:20.721Z,35.24
2023-05-20T19:47:24.773Z,35.75
2023-05-20T19:49:29.496Z,35.28
2023-05-20T19:51:31.116Z,35.42
2023-05-20T19:53:32.663Z,35.72
2023-05-20T19:55:35.880Z,35.46
2023-05-20T19:57:37.938Z,35.37
2023-05-20T19:59:39.619Z,35.76
2023-05-20T20:01:41.396Z,35.45
2023-05-20T20:03:44.103Z,35.53
2023-05-20T20:05:45.893Z,35.80
2023-05-20T20:07:47.946Z,35.83
2023-05-20T20:09:51.541Z,35.96
2023-05-20T20:11:53.320Z,35.98
2023-05-20T20:13:54.948Z,35.68
2023-05-20T20:15:59.420Z,35.99
2023-05-20T20:18:02.932Z,36.08
2023-05-20T20:20:10.548Z,36.15
2023-05-20T20:22:12.644Z,35.79
2023-05-20T20:24:15.136Z,35.61
2023-05-20T20:26:16.705Z,36.15
2023-05-20T20:28:18.600Z,35.71
2023-05-20T20:30:23.508Z,35.88
2023-05-20T20:32:28.266Z,36.16
2023-05-20T20:34:30.087Z,35.90
2023-05-20T20:36:32.125Z,35.99
2023-05-20T20:38:33.806Z,36.33
2023-05-20T20:40:41.985Z,35.88
2023-05-20T20:42:45.200Z,35.95
2023-05-20T20:44:48.345Z,36.26
2023-05-20T20:46:52.882Z,36.28
2023-05-20T20:48:54.708Z,36.03
2023-05-20T20:50:57.593Z,36.26
2023-05-20T20:52:59.324Z,36.42
2023-05-20T20:55:00.891Z,36.52
2023-05-20T20:57:02.873Z,36.22
2023-05-20T20:59:05.660Z,36.27
2023-05-20T21:01:07.448Z,36.47
2023-05-20T21:03:09.186Z,36.25
2023-05-20T21:05:10.745Z,35.94
2023-05-20T21:07:12.477Z,36.61
2023-05-20T21:09:14.616Z,36.74
2023-05-20T21:11:18.447Z,36.45
2023-05-20T21:13:20.214Z,36.71
2023-05-20T21:15:22.094Z,36.75
2023-05-20T21:17:23.718Z,36.35
2023-05-20T21:19:25.836Z,36.81
2023-05-20T21:21:27.714Z,36.84
2023-05-20T21:23:29.315Z,36.87
2023-05-20T21:25:30.948Z,36.40
2023-05-20T21:27:32.718Z,36.84
2023-05-20T21:29:35.216Z,36.88
2023-05-20T21:31:36.993Z,36.68
2023-05-20T21:33:38.761Z,36.97
2023-05-20T21:35:40.546Z,36.68
2023-05-20T21:37:44.596Z,36.88
2023-05-20T21:39:46.232Z,36.93
2023-05-20T21:41:48.063Z,36.93
2023-05-20T21:43:49.792Z,36.80
2023-05-20T21:45:57.138Z,36.96
2023-05-20T21:47:58.763Z,37.08
2023-05-20T21:50:00.646Z,36.75
2023-05-20T21:52:02.370Z,37.16
2023-05-20T21:54:04.182Z,37.05
2023-05-20T21:56:08.803Z,36.88
2023-05-20T21:58:10.571Z,37.05
2023-05-20T22:00:15.101Z,37.08
2023-05-20T22:02:17.839Z,37.19
2023-05-20T22:04:21.054Z,37.49
2023-05-20T22:06:22.972Z,37.08
2023-05-20T22:08:26.477Z,37.13
2023-05-20T22:10:28.034Z,37.41
2023-05-20T22:12:31.856Z,37.19
2023-05-20T22:14:33.958Z,37.30
2023-05-20T22:16:36.244Z,37.65
2023-05-20T22:18:38.602Z,37.32
2023-05-20T22:20:40.273Z,37.31
2023-05-20T22:22:42.491Z,37.28
2023-05-20T22:24:44.183Z,37.53
2023-05-20T22:26:46.105Z,37.67
2023-05-20T22:28:48.341Z,37.39
2023-05-20T22:30:50.256Z,37.45
2023-05-20T22:32:52.255Z,37.39
2023-05-20T22:34:58.170Z,37.90
2023-05-20T22:37:02.887Z,37.44
2023-05-20T22:39:06.642Z,37.67
2023-05-20T22:41:09.043Z,37.83
2023-05-20T22:43:13.174Z,37.56
2023-05-20T22:45:15.289Z,37.64
2023-05-20T22:47:16.986Z,37.95
2023-05-20T22:49:18.999Z,37.59
2023-05-20T22:51:24.704Z,37.80
2023-05-20T22:53:27.165Z,37.58
2023-05-20T22:55:28.870Z,37.58
2023-05-20T22:57:30.495Z,37.66
2023-05-20T22:59:32.779Z,37.76
2023-05-20T23:01:34.795Z,37.64
2023-05-20T23:03:36.641Z,37.77
2023-05-20T23:05:38.383Z,38.06
2023-05-20T23:07:40.114Z,37.56
2023-05-20T23:09:41.937Z,37.81
2023-05-20T23:11:46.156Z,37.75
2023-05-20T23:13:48.201Z,38.02
2023-05-20T23:15:50.155Z,37.85
2023-05-20T23:17:52.307Z,37.91
2023-05-20T23:19:53.973Z,37.95
2023-05-20T23:21:56.128Z,37.97
2023-05-20T23:23:57.702Z,37.77
2023-05-20T23:26:00.114Z,37.92
2023-05-20T23:28:01.777Z,37.92
2023-05-20T23:30:04.019Z,38.03
2023-05-20T23:32:05.756Z,38.19
2023-05-20T23:34:07.347Z,38.00
2023-05-20T23:36:09.771Z,38.17
2023-05-20T23:38:11.346Z,38.15
2023-05-20T23:40:16.304Z,38.37
2023-05-20T23:42:20.532Z,38.27
2023-05-20T23:44:22.242Z,38.02
2023-05-20T23:46:23.914Z,38.44
2023-05-20T23:48:26.464Z,38.49
2023-05-20T23:50:30.750Z,38.79
2023-05-20T23:52:32.340Z,38.53
2023-05-20T23:54:34.362Z,38.30
2023-05-20T23:56:35.917Z,38.58
2023-05-20T23:58:39.365Z,38.51
